Time;durP1;ratioP1;P1;durP2;ratioP2;P2;SDS_P1;SDS_P2;PMS_P1;PMS_P2;Temp;Humidity;BMP_temperature;BMP_pressure;BME280_temperature;BME280_humidity;BME280_pressure;Samples;Min_cycle;Max_cycle;Signal;HPM_P1;HPM_P2
2023/11/12 00:01:53;;;;;;;3.23;2.00;;;5.50;99.90;;;;;;4972349;28;20183;-64
2023/11/12 00:04:19;;;;;;;1.63;1.53;;;5.50;99.90;;;;;;4972880;28;20252;-64
2023/11/12 00:06:45;;;;;;;3.50;2.17;;;5.50;99.90;;;;;;4972887;28;20180;-65
2023/11/12 00:09:11;;;;;;;1.83;1.73;;;5.40;99.90;;;;;;4972217;28;20646;-65
2023/11/12 00:11:38;;;;;;;0.60;0.60;;;5.50;99.90;;;;;;4971775;28;20200;-65
2023/11/12 00:14:04;;;;;;;1.55;1.45;;;5.30;99.90;;;;;;4955594;28;20228;-65
2023/11/12 00:16:30;;;;;;;1.20;1.20;;;5.20;99.90;;;;;;4972598;28;20193;-65
2023/11/12 00:18:56;;;;;;;2.07;0.87;;;5.10;99.90;;;;;;4935933;29;20173;-65
2023/11/12 00:21:23;;;;;;;3.38;1.38;;;5.10;99.90;;;;;;4951666;28;20172;-65
2023/11/12 00:23:51;;;;;;;0.40;0.40;;;5.10;99.90;;;;;;4955301;28;20211;-65
2023/11/12 00:26:16;;;;;;;1.15;1.05;;;5.00;99.90;;;;;;4972531;28;20176;-65
2023/11/12 00:28:42;;;;;;;3.27;1.97;;;4.90;99.90;;;;;;4972688;28;20640;-64
2023/11/12 00:31:08;;;;;;;0.77;0.77;;;4.90;99.90;;;;;;4972526;28;20287;-65
2023/11/12 00:33:33;;;;;;;1.80;1.73;;;4.90;99.90;;;;;;4954980;28;20203;-64
2023/11/12 00:35:59;;;;;;;0.50;0.50;;;5.00;99.90;;;;;;4955338;28;20227;-65
2023/11/12 00:38:25;;;;;;;0.93;0.93;;;5.10;99.90;;;;;;4972479;28;20725;-63
2023/11/12 00:40:54;;;;;;;0.50;0.50;;;5.10;99.90;;;;;;4972282;28;20260;-65
2023/11/12 00:43:26;;;;;;;1.05;0.50;;;5.10;99.90;;;;;;4951105;29;20206;-65
2023/11/12 00:45:59;;;;;;;0.40;0.40;;;5.00;99.90;;;;;;4960685;28;20264;-65
2023/11/12 00:48:25;;;;;;;0.50;0.50;;;4.90;99.90;;;;;;4938973;28;20208;-65
2023/11/12 00:50:51;;;;;;;1.57;1.53;;;4.70;99.90;;;;;;4972235;28;20196;-64
2023/11/12 00:53:16;;;;;;;1.10;0.50;;;4.80;99.90;;;;;;4971949;28;20428;-65
2023/11/12 00:55:43;;;;;;;0.47;0.47;;;4.80;99.90;;;;;;4955012;28;20593;-65
2023/11/12 00:58:09;;;;;;;1.15;0.63;;;4.80;99.90;;;;;;4972269;28;20639;-65
2023/11/12 01:00:35;;;;;;;0.80;0.80;;;4.80;99.90;;;;;;4972275;28;20192;-65
2023/11/12 01:03:02;;;;;;;0.30;0.30;;;4.80;99.90;;;;;;4971953;28;20192;-64
2023/11/12 01:05:28;;;;;;;0.50;0.50;;;4.70;99.90;;;;;;4972159;28;20192;-65
2023/11/12 01:07:54;;;;;;;1.73;1.63;;;4.60;99.90;;;;;;4972236;28;20180;-65
2023/11/12 01:10:21;;;;;;;0.40;0.40;;;4.50;99.90;;;;;;4951310;29;20237;-64
2023/11/12 01:12:47;;;;;;;0.88;0.88;;;4.50;99.90;;;;;;4964524;28;20424;-65
2023/11/12 01:15:15;;;;;;;2.08;1.98;;;4.60;99.90;;;;;;4974891;28;20176;-65
2023/11/12 01:17:41;;;;;;;0.50;0.50;;;4.70;99.90;;;;;;4975471;28;20184;-64
2023/11/12 01:20:10;;;;;;;1.57;1.57;;;4.80;99.90;;;;;;4975451;28;20173;-65
2023/11/12 01:22:37;;;;;;;2.90;1.88;;;4.80;99.90;;;;;;4975041;28;20669;-64
2023/11/12 01:25:02;;;;;;;0.65;0.65;;;4.80;99.90;;;;;;4975523;28;20251;-65
2023/11/12 01:27:28;;;;;;;2.73;1.00;;;4.80;99.90;;;;;;4958287;28;20188;-64
2023/11/12 01:29:54;;;;;;;0.43;0.43;;;4.80;99.90;;;;;;4975312;28;20419;-64
2023/11/12 01:32:19;;;;;;;0.53;0.53;;;4.80;99.90;;;;;;4957702;28;20674;-64
2023/11/12 01:34:45;;;;;;;0.50;0.50;;;4.80;99.90;;;;;;4957982;28;20670;-65
2023/11/12 01:37:10;;;;;;;0.70;0.70;;;4.80;99.90;;;;;;4975240;28;20189;-64
2023/11/12 01:39:37;;;;;;;0.40;0.40;;;4.70;99.90;;;;;;4957884;28;20227;-64
2023/11/12 01:42:11;;;;;;;0.50;0.50;;;4.70;99.90;;;;;;4974848;28;20173;-64
2023/11/12 01:44:38;;;;;;;3.33;0.60;;;4.60;99.90;;;;;;4975155;28;20264;-64
2023/11/12 01:47:04;;;;;;;0.60;0.60;;;4.60;99.90;;;;;;4974964;28;20207;-65
2023/11/12 01:49:35;;;;;;;3.13;1.10;;;4.40;99.90;;;;;;4974983;28;20193;-65
2023/11/12 01:52:02;;;;;;;0.65;0.65;;;4.40;99.90;;;;;;4974582;28;20232;-64
2023/11/12 01:54:28;;;;;;;0.40;0.40;;;4.40;99.90;;;;;;4974861;28;20185;-64
2023/11/12 01:56:55;;;;;;;0.30;0.30;;;4.50;99.90;;;;;;4974885;28;20594;-64
2023/11/12 01:59:22;;;;;;;0.50;0.50;;;4.40;99.90;;;;;;4957627;28;20188;-64
2023/11/12 02:01:52;;;;;;;0.40;0.40;;;4.30;99.90;;;;;;4974297;28;20181;-65
2023/11/12 02:04:18;;;;;;;0.40;0.40;;;4.20;99.90;;;;;;4974683;28;20187;-65
2023/11/12 02:06:44;;;;;;;1.17;1.08;;;4.20;99.90;;;;;;4974692;28;20169;-64
2023/11/12 02:09:12;;;;;;;4.27;1.50;;;4.30;99.90;;;;;;4957488;28;20660;-64
2023/11/12 02:11:38;;;;;;;0.70;0.70;;;4.50;99.90;;;;;;4974557;28;20584;-65
2023/11/12 02:14:07;;;;;;;0.77;0.77;;;4.50;99.90;;;;;;4974315;28;20196;-65
2023/11/12 02:16:32;;;;;;;0.40;0.40;;;4.50;99.90;;;;;;4974423;28;20184;-64
2023/11/12 02:18:58;;;;;;;0.60;0.60;;;4.50;99.90;;;;;;4974379;28;20173;-64
2023/11/12 02:21:25;;;;;;;1.57;0.93;;;4.50;99.90;;;;;;4974628;28;20169;-65
2023/11/12 02:23:51;;;;;;;0.85;0.85;;;4.50;99.90;;;;;;4974085;28;20424;-64
2023/11/12 02:26:17;;;;;;;0.30;0.30;;;4.40;99.90;;;;;;4974159;28;20545;-64
2023/11/12 02:28:42;;;;;;;0.40;0.40;;;4.40;99.90;;;;;;4974333;28;20227;-64
2023/11/12 02:31:08;;;;;;;0.50;0.50;;;4.40;99.90;;;;;;4973916;28;20499;-65
2023/11/12 02:33:34;;;;;;;0.40;0.40;;;4.30;99.90;;;;;;4973798;28;20266;-65
2023/11/12 02:36:00;;;;;;;0.40;0.40;;;4.30;99.90;;;;;;4974151;28;20179;-65
2023/11/12 02:38:27;;;;;;;0.40;0.40;;;4.30;99.90;;;;;;4957105;28;20184;-65
2023/11/12 02:40:53;;;;;;;0.35;0.35;;;4.10;99.90;;;;;;4974039;28;20553;-64
2023/11/12 02:43:20;;;;;;;0.30;0.30;;;4.10;99.90;;;;;;4956526;28;20205;-64
2023/11/12 02:45:47;;;;;;;0.70;0.70;;;4.10;99.90;;;;;;4973986;28;20231;-64
2023/11/12 02:48:13;;;;;;;0.60;0.60;;;4.10;99.90;;;;;;4973723;28;20189;-65
2023/11/12 02:50:38;;;;;;;0.30;0.30;;;4.10;99.90;;;;;;4973815;28;20577;-64
2023/11/12 02:53:05;;;;;;;0.70;0.70;;;4.00;99.90;;;;;;4973472;28;20200;-65
2023/11/12 02:55:33;;;;;;;0.50;0.50;;;4.00;99.90;;;;;;4973758;28;20177;-65
2023/11/12 02:57:59;;;;;;;1.30;0.95;;;3.90;99.90;;;;;;4974048;28;20647;-66
2023/11/12 03:00:27;;;;;;;0.40;0.40;;;3.90;99.90;;;;;;4973606;28;20180;-65
2023/11/12 03:03:02;;;;;;;0.40;0.40;;;4.00;99.90;;;;;;4973204;28;20255;-65
2023/11/12 03:05:28;;;;;;;0.60;0.60;;;4.00;99.90;;;;;;4973759;28;20184;-65
2023/11/12 03:07:57;;;;;;;0.43;0.43;;;4.00;99.90;;;;;;4973488;28;20177;-65
2023/11/12 03:10:24;;;;;;;0.60;0.60;;;4.10;99.90;;;;;;4973491;28;20678;-65
2023/11/12 03:12:50;;;;;;;1.60;1.50;;;4.20;99.90;;;;;;4973154;28;20283;-65
2023/11/12 03:15:16;;;;;;;2.43;1.03;;;4.20;99.90;;;;;;4973458;28;20255;-65
2023/11/12 03:17:42;;;;;;;0.30;0.30;;;4.10;99.90;;;;;;4973356;28;20169;-65
2023/11/12 03:20:09;;;;;;;0.90;0.90;;;4.10;99.90;;;;;;4973489;28;20783;-65
2023/11/12 03:22:36;;;;;;;0.77;0.77;;;4.10;99.90;;;;;;4973176;28;20694;-65
2023/11/12 03:25:04;;;;;;;1.15;1.15;;;4.10;99.90;;;;;;4973370;28;20181;-65
2023/11/12 03:27:32;;;;;;;0.40;0.40;;;4.20;99.90;;;;;;4955742;28;20181;-65
2023/11/12 03:30:00;;;;;;;2.03;0.50;;;4.30;99.90;;;;;;4973242;28;20178;-65
2023/11/12 03:32:26;;;;;;;0.40;0.40;;;4.20;99.90;;;;;;4971719;28;20181;-65
2023/11/12 03:34:53;;;;;;;2.70;2.50;;;4.20;99.90;;;;;;4956022;28;20647;-65
2023/11/12 03:37:19;;;;;;;1.20;1.10;;;4.20;99.90;;;;;;4955174;28;20423;-65
2023/11/12 03:39:49;;;;;;;0.60;0.60;;;4.30;99.90;;;;;;4973115;28;20205;-65
2023/11/12 03:42:15;;;;;;;1.13;1.13;;;4.30;99.90;;;;;;4972906;28;20611;-65
2023/11/12 03:44:42;;;;;;;0.77;0.50;;;4.40;99.90;;;;;;4955720;28;20615;-65
2023/11/12 03:47:08;;;;;;;0.70;0.70;;;4.30;99.90;;;;;;4972673;28;20230;-65
2023/11/12 03:49:36;;;;;;;0.70;0.70;;;4.30;99.90;;;;;;4955758;28;20180;-65
2023/11/12 03:52:02;;;;;;;0.60;0.60;;;4.30;99.90;;;;;;4972335;28;20697;-65
2023/11/12 03:54:28;;;;;;;1.17;0.80;;;4.30;99.90;;;;;;4955592;28;20189;-65
2023/11/12 03:56:54;;;;;;;0.70;0.50;;;4.30;99.90;;;;;;4972881;28;20697;-65
2023/11/12 03:59:20;;;;;;;0.60;0.60;;;4.20;99.90;;;;;;4973123;28;20173;-65
2023/11/12 04:01:47;;;;;;;1.40;1.25;;;4.30;99.90;;;;;;4972491;28;20204;-65
2023/11/12 04:04:13;;;;;;;1.65;1.55;;;4.40;99.90;;;;;;4972747;28;20196;-65
2023/11/12 04:06:38;;;;;;;0.57;0.57;;;4.30;99.90;;;;;;4972666;28;20634;-65
2023/11/12 04:09:04;;;;;;;0.50;0.50;;;4.30;99.90;;;;;;4955569;28;20677;-65
2023/11/12 04:11:30;;;;;;;1.47;1.47;;;4.40;99.90;;;;;;4972777;28;20292;-65
2023/11/12 04:13:56;;;;;;;0.50;0.50;;;4.30;99.90;;;;;;4972317;28;20196;-65
2023/11/12 04:16:21;;;;;;;0.70;0.60;;;4.30;99.90;;;;;;4972575;28;20173;-65
2023/11/12 04:18:47;;;;;;;1.23;1.13;;;4.30;99.90;;;;;;4972679;28;20173;-65
2023/11/12 04:21:13;;;;;;;0.50;0.50;;;4.20;99.90;;;;;;4972592;28;20326;-65
2023/11/12 04:23:43;;;;;;;0.52;0.52;;;4.30;99.90;;;;;;4972238;28;20197;-65
2023/11/12 04:26:10;;;;;;;0.57;0.50;;;4.30;99.90;;;;;;4955281;28;20651;-65
2023/11/12 04:28:36;;;;;;;1.13;1.13;;;4.30;99.90;;;;;;4955451;28;20177;-65
2023/11/12 04:31:02;;;;;;;0.50;0.50;;;4.50;99.90;;;;;;4972402;28;20204;-65
2023/11/12 04:33:29;;;;;;;1.20;1.10;;;4.50;99.90;;;;;;4954982;28;20205;-65
2023/11/12 04:35:55;;;;;;;0.47;0.47;;;4.50;99.90;;;;;;4972340;28;20192;-65
2023/11/12 04:38:21;;;;;;;0.50;0.50;;;4.50;99.90;;;;;;4972578;28;20165;-65
2023/11/12 04:40:48;;;;;;;0.80;0.73;;;4.50;99.90;;;;;;4972429;28;20428;-65
2023/11/12 04:43:15;;;;;;;0.40;0.40;;;4.50;99.90;;;;;;4972169;28;20201;-65
2023/11/12 04:45:43;;;;;;;0.40;0.40;;;4.50;99.90;;;;;;4972310;28;20209;-65
2023/11/12 04:48:09;;;;;;;0.50;0.50;;;4.60;99.90;;;;;;4972204;28;20192;-65
2023/11/12 04:50:37;;;;;;;0.80;0.80;;;4.70;99.90;;;;;;4975867;28;20283;-65
2023/11/12 04:53:02;;;;;;;0.60;0.60;;;4.70;99.90;;;;;;4958692;28;20559;-65
2023/11/12 04:55:28;;;;;;;0.40;0.40;;;4.60;99.90;;;;;;4958701;28;20180;-65
2023/11/12 04:57:54;;;;;;;0.50;0.50;;;4.60;99.90;;;;;;4976027;28;20763;-65
2023/11/12 05:00:20;;;;;;;0.60;0.60;;;4.50;99.90;;;;;;4975930;28;20233;-65
2023/11/12 05:02:45;;;;;;;0.55;0.55;;;4.60;99.90;;;;;;4975512;28;20193;-65
2023/11/12 05:05:11;;;;;;;2.93;1.10;;;4.60;99.90;;;;;;4975817;28;20521;-65
2023/11/12 05:07:38;;;;;;;0.38;0.38;;;4.60;99.90;;;;;;4975072;28;20204;-65
2023/11/12 05:10:05;;;;;;;0.70;0.70;;;4.60;99.90;;;;;;4975686;28;20181;-65
2023/11/12 05:12:31;;;;;;;1.48;0.85;;;4.60;99.90;;;;;;4975394;28;20732;-65
2023/11/12 05:14:56;;;;;;;1.73;1.63;;;4.50;99.90;;;;;;4975714;28;20185;-65
2023/11/12 05:17:22;;;;;;;0.60;0.60;;;4.60;99.90;;;;;;4954786;29;20433;-66
2023/11/12 05:19:48;;;;;;;1.13;1.10;;;4.60;99.90;;;;;;4967667;28;20181;-65
2023/11/12 05:22:13;;;;;;;1.10;1.10;;;4.60;99.90;;;;;;4975217;28;20193;-66
2023/11/12 05:24:39;;;;;;;1.00;1.00;;;4.70;99.90;;;;;;4975847;28;20426;-65
2023/11/12 05:27:05;;;;;;;0.70;0.70;;;4.70;99.90;;;;;;4958139;28;20177;-65
2023/11/12 05:29:31;;;;;;;0.57;0.57;;;4.70;99.90;;;;;;4975317;28;20197;-65
2023/11/12 05:31:57;;;;;;;0.63;0.63;;;4.80;99.90;;;;;;4974762;28;20209;-65
2023/11/12 05:34:24;;;;;;;0.40;0.40;;;4.80;99.90;;;;;;4975308;28;20654;-66
2023/11/12 05:36:49;;;;;;;0.40;0.40;;;4.80;99.90;;;;;;4975277;28;20634;-65
2023/11/12 05:39:16;;;;;;;0.53;0.53;;;4.70;99.90;;;;;;4975296;28;20176;-65
2023/11/12 05:41:42;;;;;;;0.60;0.60;;;4.70;99.90;;;;;;4975075;28;20176;-65
2023/11/12 05:44:08;;;;;;;0.90;0.90;;;4.60;99.90;;;;;;4974956;28;20196;-65
2023/11/12 05:46:35;;;;;;;1.07;0.70;;;4.70;99.90;;;;;;4974915;28;20553;-65
2023/11/12 05:49:00;;;;;;;2.58;1.27;;;4.60;99.90;;;;;;4975039;28;20527;-65
2023/11/12 05:51:26;;;;;;;1.53;1.53;;;4.70;99.90;;;;;;4975028;28;20718;-65
2023/11/12 05:53:52;;;;;;;0.87;0.87;;;4.70;99.90;;;;;;4957358;28;20284;-65
2023/11/12 05:56:19;;;;;;;0.50;0.50;;;4.80;99.90;;;;;;4957596;28;20256;-65
2023/11/12 05:58:45;;;;;;;0.43;0.43;;;4.90;99.90;;;;;;4957513;28;20678;-65
2023/11/12 06:01:12;;;;;;;0.80;0.80;;;5.00;99.90;;;;;;4974294;28;20259;-65
2023/11/12 06:03:37;;;;;;;5.13;1.30;;;5.00;99.90;;;;;;4974459;28;20282;-65
2023/11/12 06:06:03;;;;;;;0.80;0.80;;;5.10;99.90;;;;;;4974777;28;20257;-65
2023/11/12 06:08:29;;;;;;;1.35;1.25;;;5.20;99.90;;;;;;4974716;28;20650;-65
2023/11/12 06:10:56;;;;;;;0.73;0.73;;;5.20;99.90;;;;;;4974655;28;20208;-65
2023/11/12 06:13:22;;;;;;;2.03;1.92;;;5.20;99.90;;;;;;4974299;28;20573;-66
2023/11/12 06:15:47;;;;;;;0.30;0.30;;;5.20;99.90;;;;;;4956428;28;20179;-65
2023/11/12 06:18:13;;;;;;;0.50;0.50;;;5.20;99.90;;;;;;4957026;28;20919;-65
2023/11/12 06:20:39;;;;;;;0.53;0.53;;;5.30;99.90;;;;;;4957156;28;20193;-66
2023/11/12 06:23:06;;;;;;;0.63;0.63;;;5.30;99.90;;;;;;4974072;28;20215;-66
2023/11/12 06:25:32;;;;;;;0.60;0.60;;;5.30;99.90;;;;;;4957370;28;20596;-65
2023/11/12 06:27:58;;;;;;;0.90;0.90;;;5.30;99.90;;;;;;4974277;28;20208;-65
2023/11/12 06:30:23;;;;;;;0.50;0.50;;;5.40;99.90;;;;;;4974062;28;20973;-65
2023/11/12 06:32:50;;;;;;;1.47;0.43;;;5.40;99.90;;;;;;4973897;28;20650;-65
2023/11/12 06:35:16;;;;;;;1.95;1.85;;;5.40;99.90;;;;;;4974295;28;20180;-65
2023/11/12 06:37:41;;;;;;;1.83;1.73;;;5.40;99.90;;;;;;4956736;28;20549;-65
2023/11/12 06:40:08;;;;;;;0.90;0.90;;;5.40;99.90;;;;;;4973893;28;20188;-65
2023/11/12 06:42:33;;;;;;;0.80;0.80;;;5.40;99.90;;;;;;4973676;28;20201;-65
2023/11/12 06:44:59;;;;;;;1.53;1.33;;;5.40;99.90;;;;;;4973916;28;20601;-65
2023/11/12 06:47:25;;;;;;;0.90;0.90;;;5.40;99.90;;;;;;4972871;28;20745;-65
2023/11/12 06:49:50;;;;;;;0.60;0.60;;;5.40;99.90;;;;;;4973245;28;20553;-65
2023/11/12 06:52:17;;;;;;;1.93;1.60;;;5.40;99.90;;;;;;4973469;28;20698;-65
2023/11/12 06:54:44;;;;;;;2.95;1.08;;;5.30;99.90;;;;;;4973828;28;20177;-65
2023/11/12 06:57:10;;;;;;;1.30;1.17;;;5.40;99.90;;;;;;4956380;28;20176;-65
2023/11/12 06:59:35;;;;;;;2.80;1.20;;;5.40;99.90;;;;;;4973634;28;20686;-65
2023/11/12 07:02:01;;;;;;;0.97;0.97;;;5.30;99.90;;;;;;4973426;28;20184;-69
2023/11/12 07:04:27;;;;;;;1.67;1.53;;;5.30;99.90;;;;;;4973587;28;20185;-72
2023/11/12 07:06:52;;;;;;;0.40;0.40;;;5.30;99.90;;;;;;4969350;28;20181;-65
2023/11/12 07:09:18;;;;;;;1.23;1.20;;;5.30;99.90;;;;;;4973298;28;20173;-68
2023/11/12 07:11:44;;;;;;;1.23;1.13;;;5.20;99.90;;;;;;4955212;28;20208;-67
2023/11/12 07:14:09;;;;;;;2.13;1.00;;;5.30;99.90;;;;;;4973072;28;20232;-68
2023/11/12 07:16:35;;;;;;;3.23;1.50;;;5.30;99.90;;;;;;4973402;28;20168;-68
2023/11/12 07:19:02;;;;;;;0.40;0.40;;;5.30;99.90;;;;;;4973511;28;20173;-71
2023/11/12 07:21:30;;;;;;;1.60;1.50;;;5.20;99.90;;;;;;4952665;29;20216;-68
2023/11/12 07:23:56;;;;;;;1.85;0.85;;;5.30;99.90;;;;;;4973013;28;20556;-68
2023/11/12 07:26:24;;;;;;;0.90;0.90;;;5.40;99.90;;;;;;4973156;28;20207;-67
2023/11/12 07:28:50;;;;;;;0.65;0.65;;;5.40;99.90;;;;;;4972345;28;20269;-67
2023/11/12 07:31:19;;;;;;;1.20;1.20;;;5.40;99.90;;;;;;4972999;28;20721;-68
2023/11/12 07:33:44;;;;;;;2.05;1.95;;;5.40;99.90;;;;;;4972810;28;20204;-66
2023/11/12 07:36:12;;;;;;;1.10;1.10;;;5.40;99.90;;;;;;4956186;28;20181;-66
2023/11/12 07:38:38;;;;;;;0.60;0.60;;;5.40;99.90;;;;;;4973088;28;20165;-68
2023/11/12 07:41:07;;;;;;;0.88;0.88;;;5.50;99.90;;;;;;4955643;28;20613;-69
2023/11/12 07:43:35;;;;;;;0.38;0.38;;;5.40;99.90;;;;;;4969473;28;20209;-65
2023/11/12 07:46:02;;;;;;;0.60;0.60;;;5.30;99.90;;;;;;4972157;28;20191;-69
2023/11/12 07:48:28;;;;;;;0.60;0.60;;;5.40;99.90;;;;;;4972964;28;20201;-71
2023/11/12 07:50:54;;;;;;;1.80;1.70;;;5.40;99.90;;;;;;4951489;28;20367;-67
2023/11/12 07:53:20;;;;;;;1.17;1.17;;;5.50;99.90;;;;;;4955385;28;20277;-66
2023/11/12 07:55:46;;;;;;;0.57;0.57;;;5.50;99.90;;;;;;4972661;28;20161;-66
2023/11/12 07:58:11;;;;;;;1.00;1.00;;;5.60;99.90;;;;;;4965607;28;20517;-66
2023/11/12 08:00:37;;;;;;;0.63;0.63;;;5.60;99.90;;;;;;4953479;29;20187;-66
2023/11/12 08:03:03;;;;;;;0.50;0.50;;;5.70;99.90;;;;;;4954002;28;20243;-66
2023/11/12 08:05:29;;;;;;;0.80;0.70;;;5.60;99.90;;;;;;4972463;28;20516;-66
2023/11/12 08:07:54;;;;;;;0.50;0.50;;;5.60;99.90;;;;;;4972435;28;20424;-66
2023/11/12 08:10:21;;;;;;;1.10;1.10;;;5.50;99.90;;;;;;4972223;28;20477;-71
2023/11/12 08:12:47;;;;;;;0.47;0.47;;;5.50;99.90;;;;;;4971597;28;20192;-72
2023/11/12 08:15:13;;;;;;;0.50;0.50;;;5.40;99.90;;;;;;4972706;28;20653;-72
2023/11/12 08:17:40;;;;;;;0.83;0.83;;;5.40;99.90;;;;;;4968903;28;20170;-70
2023/11/12 08:20:06;;;;;;;1.35;1.25;;;5.40;99.90;;;;;;4972646;28;20197;-71
2023/11/12 08:22:32;;;;;;;0.57;0.57;;;5.40;99.90;;;;;;4970441;28;20213;-65
2023/11/12 08:24:58;;;;;;;1.20;1.07;;;5.40;99.90;;;;;;4974300;28;20169;-68
2023/11/12 08:27:24;;;;;;;0.85;0.85;;;5.40;99.90;;;;;;4970516;28;20994;-65
2023/11/12 08:29:50;;;;;;;2.63;1.27;;;5.30;99.80;;;;;;4963360;28;20184;-65
2023/11/12 08:32:16;;;;;;;1.35;1.35;;;5.30;99.90;;;;;;4976045;28;20471;-65
2023/11/12 08:34:41;;;;;;;0.80;0.80;;;5.30;99.90;;;;;;4960870;28;20181;-65
2023/11/12 08:37:07;;;;;;;0.60;0.60;;;5.30;99.90;;;;;;4957445;28;20201;-65
2023/11/12 08:39:33;;;;;;;1.10;1.10;;;5.30;99.90;;;;;;4954748;28;20264;-65
2023/11/12 08:41:59;;;;;;;2.70;2.33;;;5.30;99.90;;;;;;4975776;28;20418;-65
2023/11/12 08:44:25;;;;;;;1.17;1.17;;;5.40;99.80;;;;;;4961357;28;20173;-69
2023/11/12 08:46:51;;;;;;;1.10;1.10;;;5.40;99.50;;;;;;4956210;28;20971;-70
2023/11/12 08:49:17;;;;;;;3.40;3.20;;;5.30;99.50;;;;;;4960718;28;20185;-71
2023/11/12 08:51:43;;;;;;;3.07;0.60;;;5.20;99.30;;;;;;4970567;28;20460;-68
2023/11/12 08:54:09;;;;;;;2.23;0.87;;;5.20;99.50;;;;;;4971267;28;20988;-66
2023/11/12 08:56:35;;;;;;;0.40;0.40;;;5.00;99.50;;;;;;4974401;28;20185;-71
2023/11/12 08:59:03;;;;;;;0.85;0.85;;;4.90;99.80;;;;;;4985920;23;20237;-66
2023/11/12 09:01:32;;;;;;;1.08;0.65;;;4.90;99.90;;;;;;4976132;28;20260;-67
2023/11/12 09:03:58;;;;;;;0.40;0.40;;;4.90;99.90;;;;;;4975467;28;20182;-67
2023/11/12 09:06:24;;;;;;;0.40;0.40;;;4.90;99.90;;;;;;4976007;28;20590;-70
2023/11/12 09:08:49;;;;;;;1.43;1.07;;;5.00;99.90;;;;;;4974655;28;20267;-66
2023/11/12 09:11:15;;;;;;;3.13;1.67;;;5.00;99.90;;;;;;4974405;28;20599;-66
2023/11/12 09:13:42;;;;;;;0.37;0.37;;;5.10;99.90;;;;;;4975532;28;20177;-66
2023/11/12 09:16:08;;;;;;;0.50;0.50;;;5.10;99.90;;;;;;4975735;28;20181;-66
2023/11/12 09:18:33;;;;;;;0.70;0.53;;;5.10;99.90;;;;;;4975446;28;20632;-66
2023/11/12 09:21:00;;;;;;;0.93;0.93;;;5.10;99.90;;;;;;4974718;28;20205;-67
2023/11/12 09:23:26;;;;;;;1.73;1.25;;;5.10;99.90;;;;;;4975253;28;20721;-66
2023/11/12 09:25:51;;;;;;;6.73;1.33;;;5.20;99.90;;;;;;4974225;28;20193;-66
2023/11/12 09:28:17;;;;;;;0.90;0.63;;;5.30;99.90;;;;;;4974971;28;20607;-67
2023/11/12 09:30:44;;;;;;;0.50;0.50;;;5.30;99.90;;;;;;4975082;28;20664;-66
2023/11/12 09:33:12;;;;;;;0.57;0.57;;;5.30;99.70;;;;;;4975295;28;20715;-66
2023/11/12 09:35:39;;;;;;;0.90;0.90;;;5.40;99.60;;;;;;4974018;28;20190;-66
2023/11/12 09:38:04;;;;;;;1.17;1.15;;;5.40;99.20;;;;;;4974558;28;20220;-66
2023/11/12 09:40:31;;;;;;;1.60;1.50;;;5.40;99.20;;;;;;4974709;28;20207;-66
2023/11/12 09:42:57;;;;;;;1.90;1.80;;;5.40;99.30;;;;;;4957469;28;20189;-66
2023/11/12 09:45:25;;;;;;;0.98;0.98;;;5.30;99.20;;;;;;4975312;28;20644;-66
2023/11/12 09:47:53;;;;;;;1.05;0.80;;;5.30;99.30;;;;;;4975157;28;20650;-67
2023/11/12 09:50:20;;;;;;;1.35;1.35;;;5.20;99.30;;;;;;4975198;28;20740;-66
2023/11/12 09:52:49;;;;;;;0.60;0.60;;;5.20;99.50;;;;;;4973307;28;20236;-67
2023/11/12 09:55:16;;;;;;;0.98;0.85;;;5.20;99.60;;;;;;4973452;28;20554;-66
2023/11/12 09:57:43;;;;;;;1.38;1.27;;;5.20;99.70;;;;;;4973857;28;20251;-67
2023/11/12 10:00:12;;;;;;;0.60;0.60;;;5.30;99.60;;;;;;4973428;28;20569;-67
2023/11/12 10:02:41;;;;;;;0.50;0.50;;;5.20;99.50;;;;;;4974395;28;20267;-67
2023/11/12 10:05:10;;;;;;;1.00;0.98;;;5.30;99.40;;;;;;4973769;28;20420;-67
2023/11/12 10:07:36;;;;;;;2.70;2.25;;;5.20;99.60;;;;;;4974804;28;20224;-67
2023/11/12 10:10:22;;;;;;;1.17;1.08;;;5.20;99.60;;;;;;4974840;28;20177;-66
2023/11/12 10:12:48;;;;;;;3.47;2.00;;;5.30;99.60;;;;;;4974281;28;20180;-67
2023/11/12 10:15:14;;;;;;;5.38;3.10;;;5.30;99.40;;;;;;4974463;28;20548;-66
2023/11/12 10:17:47;;;;;;;2.00;1.90;;;5.30;99.30;;;;;;4974397;28;20238;-66
2023/11/12 10:20:24;;;;;;;4.15;3.35;;;5.20;99.20;;;;;;4973267;28;20444;-66
2023/11/12 10:22:50;;;;;;;5.07;3.80;;;5.20;99.50;;;;;;4973846;28;20170;-66
2023/11/12 10:25:42;;;;;;;11.10;2.80;;;5.20;99.50;;;;;;4974196;28;20256;-66
2023/11/12 10:28:10;;;;;;;3.08;2.58;;;5.20;99.50;;;;;;4974080;28;20197;-66
2023/11/12 10:30:37;;;;;;;7.85;3.58;;;5.20;99.60;;;;;;4974168;28;20673;-67
2023/11/12 10:33:19;;;;;;;2.97;2.58;;;5.20;99.60;;;;;;4974002;28;20227;-67
2023/11/12 10:35:46;;;;;;;2.47;2.28;;;5.20;99.40;;;;;;4974476;28;20173;-66
2023/11/12 10:38:15;;;;;;;2.47;2.10;;;5.20;99.60;;;;;;4974208;28;20573;-66
2023/11/12 10:41:02;;;;;;;1.77;1.08;;;5.10;99.50;;;;;;4974369;28;20172;-66
2023/11/12 10:43:31;;;;;;;16.00;2.15;;;5.20;99.50;;;;;;4973989;28;20229;-67
2023/11/12 10:45:59;;;;;;;2.13;1.98;;;5.20;99.40;;;;;;4974256;28;20231;-67
2023/11/12 10:48:35;;;;;;;4.20;1.88;;;5.20;99.40;;;;;;4974132;28;20212;-67
2023/11/12 10:51:06;;;;;;;1.17;1.08;;;5.20;99.50;;;;;;4974123;28;20573;-67
2023/11/12 10:53:33;;;;;;;0.45;0.45;;;5.20;99.60;;;;;;4973916;28;20184;-66
2023/11/12 10:56:00;;;;;;;0.82;0.55;;;5.20;99.50;;;;;;4974169;28;20184;-67
2023/11/12 10:58:28;;;;;;;0.57;0.57;;;5.20;99.30;;;;;;4974086;28;20307;-67
2023/11/12 11:00:57;;;;;;;0.57;0.57;;;5.10;99.40;;;;;;4973423;28;20464;-67
2023/11/12 11:03:26;;;;;;;1.00;0.95;;;5.10;99.60;;;;;;4970884;28;20180;-66
2023/11/12 11:05:57;;;;;;;2.15;2.05;;;5.10;99.70;;;;;;4973371;28;20184;-67
2023/11/12 11:08:26;;;;;;;0.52;0.52;;;5.10;99.70;;;;;;4973977;28;20206;-66
2023/11/12 11:10:53;;;;;;;0.40;0.40;;;5.10;99.70;;;;;;4972771;28;20197;-67
2023/11/12 11:13:19;;;;;;;0.50;0.50;;;5.00;99.60;;;;;;4973408;28;20680;-66
2023/11/12 11:15:55;;;;;;;1.83;0.77;;;5.10;99.80;;;;;;4973709;28;20199;-66
2023/11/12 11:18:33;;;;;;;1.15;1.15;;;5.10;99.90;;;;;;4973597;28;20251;-66
2023/11/12 11:21:17;;;;;;;0.70;0.70;;;5.20;99.90;;;;;;4973652;28;20188;-66
2023/11/12 11:23:52;;;;;;;1.73;1.63;;;5.20;99.80;;;;;;4971980;28;20177;-66
2023/11/12 11:26:27;;;;;;;1.08;1.02;;;5.20;99.80;;;;;;4973515;28;20184;-67
2023/11/12 11:29:05;;;;;;;0.50;0.50;;;5.30;99.60;;;;;;4973496;28;20201;-66
2023/11/12 11:32:00;;;;;;;0.80;0.75;;;5.20;99.60;;;;;;4971776;28;20227;-67
2023/11/12 11:34:39;;;;;;;2.33;2.22;;;5.20;99.60;;;;;;4965835;28;20220;-67
2023/11/12 11:37:05;;;;;;;2.97;2.00;;;5.10;99.70;;;;;;4973035;28;20268;-66
2023/11/12 11:39:32;;;;;;;0.90;0.87;;;5.10;99.80;;;;;;4973181;28;20276;-66
2023/11/12 11:42:00;;;;;;;1.45;1.38;;;5.00;99.60;;;;;;4972900;28;20420;-66
2023/11/12 11:44:35;;;;;;;0.70;0.70;;;5.00;99.50;;;;;;4973263;28;20256;-66
2023/11/12 11:47:05;;;;;;;0.88;0.88;;;5.10;99.60;;;;;;4971788;28;20186;-67
2023/11/12 11:49:31;;;;;;;3.28;2.97;;;5.10;99.60;;;;;;4972634;28;20196;-66
2023/11/12 11:52:00;;;;;;;1.52;1.42;;;5.10;99.70;;;;;;4972843;28;20305;-67
2023/11/12 11:54:26;;;;;;;0.90;0.90;;;5.10;99.90;;;;;;4973172;28;20191;-67
2023/11/12 11:56:58;;;;;;;0.80;0.80;;;5.00;99.80;;;;;;4972787;28;20259;-66
2023/11/12 11:59:24;;;;;;;2.92;1.48;;;5.00;99.90;;;;;;4972109;28;20709;-66
2023/11/12 12:01:55;;;;;;;0.50;0.50;;;5.00;99.90;;;;;;4972345;28;20183;-67
2023/11/12 12:04:23;;;;;;;1.40;1.20;;;5.00;99.90;;;;;;4972446;28;20412;-66
2023/11/12 12:06:49;;;;;;;0.65;0.65;;;5.10;99.90;;;;;;4970140;28;20274;-66
2023/11/12 12:09:19;;;;;;;1.40;1.27;;;5.10;99.90;;;;;;4971011;28;20277;-66
2023/11/12 12:11:53;;;;;;;1.63;1.58;;;5.10;99.90;;;;;;4964125;28;20291;-66
2023/11/12 12:14:24;;;;;;;0.93;0.93;;;5.20;99.90;;;;;;4970093;28;20172;-64
2023/11/12 12:16:50;;;;;;;1.33;0.85;;;5.30;99.70;;;;;;4953308;28;20181;-65
2023/11/12 12:19:18;;;;;;;0.82;0.80;;;5.20;99.90;;;;;;4970141;28;20224;-68
2023/11/12 12:21:51;;;;;;;0.80;0.80;;;5.30;99.50;;;;;;4971381;28;20178;-67
2023/11/12 12:24:21;;;;;;;1.52;1.42;;;5.20;99.60;;;;;;4969578;28;20235;-68
2023/11/12 12:26:47;;;;;;;0.95;0.40;;;5.10;99.60;;;;;;4971947;28;20177;-68
2023/11/12 12:29:31;;;;;;;1.15;1.05;;;5.10;99.80;;;;;;4971829;28;20192;-67
2023/11/12 12:31:58;;;;;;;3.00;1.52;;;5.00;99.90;;;;;;4969750;28;20645;-67
2023/11/12 12:34:25;;;;;;;0.75;0.75;;;5.10;99.90;;;;;;4972452;28;20177;-67
2023/11/12 12:37:03;;;;;;;0.88;0.70;;;5.10;99.90;;;;;;4972628;28;20182;-67
2023/11/12 12:39:28;;;;;;;1.23;1.08;;;5.10;99.90;;;;;;4971539;28;20188;-67
2023/11/12 12:42:01;;;;;;;0.50;0.50;;;5.20;99.90;;;;;;4972625;28;20278;-67
2023/11/12 12:44:27;;;;;;;0.63;0.63;;;5.20;99.90;;;;;;4972670;28;20173;-67
2023/11/12 12:46:53;;;;;;;0.83;0.70;;;5.20;99.90;;;;;;4972665;28;20567;-67
2023/11/12 12:49:48;;;;;;;0.70;0.70;;;5.20;99.70;;;;;;4972498;28;20215;-67
2023/11/12 12:52:21;;;;;;;0.52;0.52;;;5.30;99.70;;;;;;4959685;28;20244;-67
2023/11/12 12:54:47;;;;;;;0.52;0.52;;;5.20;99.90;;;;;;4972646;28;20240;-67
2023/11/12 12:57:13;;;;;;;4.50;3.27;;;5.20;99.90;;;;;;4972636;28;20177;-67
2023/11/12 12:59:39;;;;;;;2.37;2.17;;;5.20;99.90;;;;;;4972293;28;20814;-67